CheckWX is a tool to help pilots better visualize weather data.  It is not intended as a substitute for an official pre-flight weather briefing.

22:10:20 UTC

EGNT METAR
Newcastle Airport
Newcastle, United Kingdom
Current

20 mins ago

EGNT 212150Z 13006KT 100V170 9999 BKN030 06/03 Q1002
Observed
Nov-21 @ 21:50 UTC
Wind
  • 130° at 6 KTS
Visibility
10,000+ meters
Flight Rules
MVFR
Cloud Levels
  • Broken at 3,000' AGL
Temperature
C / 43°F
Dewpoint
C / 37°F
Humidity
81%
Altimeter
29.59" Hg
Pressure
1001.92 hPa
Previous

50 mins ago

EGNT 212120Z 12007KT 9999 BKN030 06/02 Q1003
Observed
Nov-21 @ 21:20 UTC
Wind
  • 120° at 7 KTS
Visibility
10,000+ meters
Flight Rules
MVFR
Cloud Levels
  • Broken at 3,000' AGL
Temperature
C / 43°F
Dewpoint
C / 36°F
Humidity
76%
Altimeter
29.62" Hg
Pressure
1002.92 hPa
Previous

1 hour ago

EGNT 212050Z 11009KT 070V140 9999 BKN025 06/02 Q1003
Observed
Nov-21 @ 20:50 UTC
Wind
  • 110° at 9 KTS
Visibility
10,000+ meters
Flight Rules
MVFR
Cloud Levels
  • Broken at 2,500' AGL
Temperature
C / 43°F
Dewpoint
C / 36°F
Humidity
76%
Altimeter
29.62" Hg
Pressure
1002.92 hPa